sensor_id;sensor_type;location;lat;lon;timestamp;P1;durP1;ratioP1;P2;durP2;ratioP2
46597;SDS011;32318;48.858;8.252;2024-02-23T00:06:46;6.38;;;0.77;;
46597;SDS011;32318;48.858;8.252;2024-02-23T00:14:47;7.38;;;0.70;;
46597;SDS011;32318;48.858;8.252;2024-02-23T00:22:47;2.88;;;0.63;;
46597;SDS011;32318;48.858;8.252;2024-02-23T00:30:47;7.32;;;1.08;;
46597;SDS011;32318;48.858;8.252;2024-02-23T00:38:48;4.57;;;0.47;;
46597;SDS011;32318;48.858;8.252;2024-02-23T00:46:48;2.22;;;0.40;;
46597;SDS011;32318;48.858;8.252;2024-02-23T00:54:48;0.75;;;0.30;;
46597;SDS011;32318;48.858;8.252;2024-02-23T01:02:48;5.35;;;0.40;;
46597;SDS011;32318;48.858;8.252;2024-02-23T01:10:49;12.60;;;1.08;;
46597;SDS011;32318;48.858;8.252;2024-02-23T01:18:49;5.20;;;0.80;;
46597;SDS011;32318;48.858;8.252;2024-02-23T01:26:53;4.25;;;0.43;;
46597;SDS011;32318;48.858;8.252;2024-02-23T01:34:55;1.20;;;0.43;;
46597;SDS011;32318;48.858;8.252;2024-02-23T01:43:04;5.68;;;0.77;;
46597;SDS011;32318;48.858;8.252;2024-02-23T01:51:05;3.60;;;0.50;;
46597;SDS011;32318;48.858;8.252;2024-02-23T01:59:06;2.50;;;0.55;;
46597;SDS011;32318;48.858;8.252;2024-02-23T02:07:07;1.55;;;0.30;;
46597;SDS011;32318;48.858;8.252;2024-02-23T02:15:08;3.95;;;0.60;;
46597;SDS011;32318;48.858;8.252;2024-02-23T02:23:08;3.17;;;0.97;;
46597;SDS011;32318;48.858;8.252;2024-02-23T02:31:10;1.80;;;0.40;;
46597;SDS011;32318;48.858;8.252;2024-02-23T02:39:11;6.07;;;0.68;;
46597;SDS011;32318;48.858;8.252;2024-02-23T02:47:11;5.70;;;1.10;;
46597;SDS011;32318;48.858;8.252;2024-02-23T02:55:11;3.00;;;0.43;;
46597;SDS011;32318;48.858;8.252;2024-02-23T03:03:12;4.28;;;0.70;;
46597;SDS011;32318;48.858;8.252;2024-02-23T03:11:13;5.95;;;0.88;;
46597;SDS011;32318;48.858;8.252;2024-02-23T03:19:13;6.25;;;1.05;;
46597;SDS011;32318;48.858;8.252;2024-02-23T03:27:13;6.85;;;0.60;;
46597;SDS011;32318;48.858;8.252;2024-02-23T03:35:14;4.68;;;0.80;;
46597;SDS011;32318;48.858;8.252;2024-02-23T03:43:14;4.35;;;0.70;;
46597;SDS011;32318;48.858;8.252;2024-02-23T03:51:14;5.25;;;1.25;;
46597;SDS011;32318;48.858;8.252;2024-02-23T03:59:18;2.72;;;0.70;;
46597;SDS011;32318;48.858;8.252;2024-02-23T04:07:19;6.97;;;0.80;;
46597;SDS011;32318;48.858;8.252;2024-02-23T04:15:19;6.93;;;1.13;;
46597;SDS011;32318;48.858;8.252;2024-02-23T04:23:20;4.10;;;0.82;;
46597;SDS011;32318;48.858;8.252;2024-02-23T04:31:20;9.48;;;0.80;;
46597;SDS011;32318;48.858;8.252;2024-02-23T04:39:21;5.95;;;0.75;;
46597;SDS011;32318;48.858;8.252;2024-02-23T04:47:21;7.97;;;0.90;;
46597;SDS011;32318;48.858;8.252;2024-02-23T04:55:22;9.85;;;1.08;;
46597;SDS011;32318;48.858;8.252;2024-02-23T05:03:22;4.45;;;1.17;;
46597;SDS011;32318;48.858;8.252;2024-02-23T05:11:23;3.47;;;0.50;;
46597;SDS011;32318;48.858;8.252;2024-02-23T05:19:23;5.65;;;0.77;;
46597;SDS011;32318;48.858;8.252;2024-02-23T05:27:24;1.77;;;0.60;;
46597;SDS011;32318;48.858;8.252;2024-02-23T05:35:25;3.25;;;0.52;;
46597;SDS011;32318;48.858;8.252;2024-02-23T05:43:29;5.43;;;1.00;;
46597;SDS011;32318;48.858;8.252;2024-02-23T05:51:30;4.70;;;0.80;;
46597;SDS011;32318;48.858;8.252;2024-02-23T05:59:30;4.70;;;0.82;;
46597;SDS011;32318;48.858;8.252;2024-02-23T06:07:31;3.78;;;0.52;;
46597;SDS011;32318;48.858;8.252;2024-02-23T06:15:32;2.75;;;0.90;;
46597;SDS011;32318;48.858;8.252;2024-02-23T06:23:32;3.65;;;0.95;;
46597;SDS011;32318;48.858;8.252;2024-02-23T06:31:32;3.92;;;0.80;;
46597;SDS011;32318;48.858;8.252;2024-02-23T06:39:34;5.53;;;0.73;;
46597;SDS011;32318;48.858;8.252;2024-02-23T06:47:35;7.63;;;1.30;;
46597;SDS011;32318;48.858;8.252;2024-02-23T06:55:35;3.30;;;0.82;;
46597;SDS011;32318;48.858;8.252;2024-02-23T07:03:36;4.82;;;1.17;;
46597;SDS011;32318;48.858;8.252;2024-02-23T07:11:37;2.45;;;1.08;;
46597;SDS011;32318;48.858;8.252;2024-02-23T07:19:38;4.53;;;1.10;;
46597;SDS011;32318;48.858;8.252;2024-02-23T07:27:38;6.17;;;1.10;;
46597;SDS011;32318;48.858;8.252;2024-02-23T07:35:38;6.82;;;1.40;;
46597;SDS011;32318;48.858;8.252;2024-02-23T07:43:39;1.98;;;1.00;;
46597;SDS011;32318;48.858;8.252;2024-02-23T07:51:39;11.50;;;1.75;;
46597;SDS011;32318;48.858;8.252;2024-02-23T07:59:40;14.18;;;1.40;;
46597;SDS011;32318;48.858;8.252;2024-02-23T08:07:41;7.10;;;1.27;;
46597;SDS011;32318;48.858;8.252;2024-02-23T08:15:41;4.38;;;0.80;;
46597;SDS011;32318;48.858;8.252;2024-02-23T08:23:41;12.20;;;1.38;;
46597;SDS011;32318;48.858;8.252;2024-02-23T08:31:41;5.72;;;0.85;;
46597;SDS011;32318;48.858;8.252;2024-02-23T08:39:42;4.35;;;1.20;;
46597;SDS011;32318;48.858;8.252;2024-02-23T08:47:42;7.10;;;1.05;;
46597;SDS011;32318;48.858;8.252;2024-02-23T08:55:43;11.57;;;1.75;;
46597;SDS011;32318;48.858;8.252;2024-02-23T09:03:44;13.80;;;1.65;;
46597;SDS011;32318;48.858;8.252;2024-02-23T09:11:44;18.35;;;1.38;;
46597;SDS011;32318;48.858;8.252;2024-02-23T09:19:44;6.30;;;1.30;;
46597;SDS011;32318;48.858;8.252;2024-02-23T09:27:45;9.80;;;1.30;;
46597;SDS011;32318;48.858;8.252;2024-02-23T09:35:45;5.88;;;0.88;;
46597;SDS011;32318;48.858;8.252;2024-02-23T09:43:46;4.97;;;1.00;;
46597;SDS011;32318;48.858;8.252;2024-02-23T09:51:47;10.00;;;1.17;;
46597;SDS011;32318;48.858;8.252;2024-02-23T09:59:48;11.07;;;1.20;;
46597;SDS011;32318;48.858;8.252;2024-02-23T10:07:49;10.35;;;1.20;;
46597;SDS011;32318;48.858;8.252;2024-02-23T10:15:53;9.60;;;1.25;;
46597;SDS011;32318;48.858;8.252;2024-02-23T10:23:55;9.48;;;1.35;;
46597;SDS011;32318;48.858;8.252;2024-02-23T10:31:56;11.93;;;1.52;;
46597;SDS011;32318;48.858;8.252;2024-02-23T10:39:58;12.63;;;1.40;;
46597;SDS011;32318;48.858;8.252;2024-02-23T10:56:06;10.63;;;1.42;;
46597;SDS011;32318;48.858;8.252;2024-02-23T11:04:07;10.35;;;1.45;;
46597;SDS011;32318;48.858;8.252;2024-02-23T11:12:09;10.00;;;1.50;;
46597;SDS011;32318;48.858;8.252;2024-02-23T11:20:14;16.13;;;1.27;;
46597;SDS011;32318;48.858;8.252;2024-02-23T11:28:21;9.05;;;1.58;;
46597;SDS011;32318;48.858;8.252;2024-02-23T11:44:24;11.65;;;2.42;;
46597;SDS011;32318;48.858;8.252;2024-02-23T11:52:24;10.77;;;2.10;;
46597;SDS011;32318;48.858;8.252;2024-02-23T12:00:25;9.15;;;1.13;;
46597;SDS011;32318;48.858;8.252;2024-02-23T12:08:26;2.23;;;0.70;;
46597;SDS011;32318;48.858;8.252;2024-02-23T12:16:27;11.15;;;1.67;;
46597;SDS011;32318;48.858;8.252;2024-02-23T12:24:27;13.68;;;1.42;;
46597;SDS011;32318;48.858;8.252;2024-02-23T12:32:29;8.93;;;1.40;;
46597;SDS011;32318;48.858;8.252;2024-02-23T12:40:29;9.85;;;1.20;;
46597;SDS011;32318;48.858;8.252;2024-02-23T12:48:30;3.67;;;0.90;;
46597;SDS011;32318;48.858;8.252;2024-02-23T12:56:30;5.57;;;1.02;;
46597;SDS011;32318;48.858;8.252;2024-02-23T13:04:30;12.70;;;1.35;;
46597;SDS011;32318;48.858;8.252;2024-02-23T13:12:31;9.93;;;1.30;;
46597;SDS011;32318;48.858;8.252;2024-02-23T13:20:32;8.65;;;1.33;;
46597;SDS011;32318;48.858;8.252;2024-02-23T13:28:33;3.95;;;1.27;;
46597;SDS011;32318;48.858;8.252;2024-02-23T13:36:33;18.67;;;4.40;;
46597;SDS011;32318;48.858;8.252;2024-02-23T13:44:34;8.82;;;1.60;;
46597;SDS011;32318;48.858;8.252;2024-02-23T13:52:35;6.63;;;1.60;;
46597;SDS011;32318;48.858;8.252;2024-02-23T14:00:35;3.70;;;1.35;;
46597;SDS011;32318;48.858;8.252;2024-02-23T14:08:35;7.03;;;0.93;;
46597;SDS011;32318;48.858;8.252;2024-02-23T14:16:37;6.88;;;1.05;;
46597;SDS011;32318;48.858;8.252;2024-02-23T14:24:37;6.45;;;1.20;;
46597;SDS011;32318;48.858;8.252;2024-02-23T14:32:38;9.55;;;2.75;;
46597;SDS011;32318;48.858;8.252;2024-02-23T14:40:40;5.05;;;1.02;;
46597;SDS011;32318;48.858;8.252;2024-02-23T14:48:40;4.97;;;1.23;;
46597;SDS011;32318;48.858;8.252;2024-02-23T14:56:40;4.78;;;1.00;;
46597;SDS011;32318;48.858;8.252;2024-02-23T15:04:41;6.65;;;1.05;;
46597;SDS011;32318;48.858;8.252;2024-02-23T15:12:41;6.90;;;1.02;;
46597;SDS011;32318;48.858;8.252;2024-02-23T15:20:41;9.77;;;0.98;;
46597;SDS011;32318;48.858;8.252;2024-02-23T15:28:42;7.43;;;1.10;;
46597;SDS011;32318;48.858;8.252;2024-02-23T15:36:42;3.90;;;1.08;;
46597;SDS011;32318;48.858;8.252;2024-02-23T15:44:42;3.17;;;0.93;;
46597;SDS011;32318;48.858;8.252;2024-02-23T15:52:43;4.15;;;0.85;;
46597;SDS011;32318;48.858;8.252;2024-02-23T16:00:43;3.67;;;1.17;;
46597;SDS011;32318;48.858;8.252;2024-02-23T16:08:44;5.57;;;1.42;;
46597;SDS011;32318;48.858;8.252;2024-02-23T16:16:46;2.50;;;1.15;;
46597;SDS011;32318;48.858;8.252;2024-02-23T16:24:47;2.85;;;1.23;;
46597;SDS011;32318;48.858;8.252;2024-02-23T16:32:48;2.10;;;1.10;;
46597;SDS011;32318;48.858;8.252;2024-02-23T16:40:49;6.07;;;1.27;;
46597;SDS011;32318;48.858;8.252;2024-02-23T16:48:49;5.47;;;1.67;;
46597;SDS011;32318;48.858;8.252;2024-02-23T16:56:50;10.60;;;2.13;;
46597;SDS011;32318;48.858;8.252;2024-02-23T17:04:50;13.32;;;3.88;;
46597;SDS011;32318;48.858;8.252;2024-02-23T17:12:50;6.95;;;2.25;;
46597;SDS011;32318;48.858;8.252;2024-02-23T17:20:52;10.70;;;3.10;;
46597;SDS011;32318;48.858;8.252;2024-02-23T17:28:53;14.65;;;2.92;;
46597;SDS011;32318;48.858;8.252;2024-02-23T17:36:53;8.52;;;2.15;;
46597;SDS011;32318;48.858;8.252;2024-02-23T17:44:53;7.88;;;2.30;;
46597;SDS011;32318;48.858;8.252;2024-02-23T17:52:53;11.38;;;2.58;;
46597;SDS011;32318;48.858;8.252;2024-02-23T18:00:54;12.85;;;2.70;;
46597;SDS011;32318;48.858;8.252;2024-02-23T18:08:54;7.25;;;3.05;;
46597;SDS011;32318;48.858;8.252;2024-02-23T18:16:54;10.27;;;3.45;;
46597;SDS011;32318;48.858;8.252;2024-02-23T18:24:54;9.38;;;3.10;;
46597;SDS011;32318;48.858;8.252;2024-02-23T18:32:58;10.00;;;3.05;;
46597;SDS011;32318;48.858;8.252;2024-02-23T18:40:59;9.00;;;2.97;;
46597;SDS011;32318;48.858;8.252;2024-02-23T18:49:02;10.35;;;3.55;;
46597;SDS011;32318;48.858;8.252;2024-02-23T18:57:03;10.68;;;3.28;;
46597;SDS011;32318;48.858;8.252;2024-02-23T19:05:04;10.32;;;3.40;;
46597;SDS011;32318;48.858;8.252;2024-02-23T19:13:04;9.00;;;3.05;;
46597;SDS011;32318;48.858;8.252;2024-02-23T19:21:04;6.53;;;2.75;;
46597;SDS011;32318;48.858;8.252;2024-02-23T19:29:05;11.80;;;2.75;;
46597;SDS011;32318;48.858;8.252;2024-02-23T19:37:05;6.70;;;2.23;;
46597;SDS011;32318;48.858;8.252;2024-02-23T19:45:06;8.02;;;2.13;;
46597;SDS011;32318;48.858;8.252;2024-02-23T19:53:06;7.78;;;1.95;;
46597;SDS011;32318;48.858;8.252;2024-02-23T20:01:06;4.68;;;1.83;;
46597;SDS011;32318;48.858;8.252;2024-02-23T20:09:10;12.57;;;1.88;;
46597;SDS011;32318;48.858;8.252;2024-02-23T20:17:13;6.35;;;1.77;;
46597;SDS011;32318;48.858;8.252;2024-02-23T20:25:14;3.80;;;1.45;;
46597;SDS011;32318;48.858;8.252;2024-02-23T20:33:14;13.57;;;2.00;;
46597;SDS011;32318;48.858;8.252;2024-02-23T20:41:14;7.35;;;1.85;;
46597;SDS011;32318;48.858;8.252;2024-02-23T20:49:15;8.45;;;1.95;;
46597;SDS011;32318;48.858;8.252;2024-02-23T20:57:16;7.95;;;1.67;;
46597;SDS011;32318;48.858;8.252;2024-02-23T21:05:16;6.88;;;1.92;;
46597;SDS011;32318;48.858;8.252;2024-02-23T21:13:19;7.22;;;1.70;;
46597;SDS011;32318;48.858;8.252;2024-02-23T21:21:19;7.88;;;1.80;;
46597;SDS011;32318;48.858;8.252;2024-02-23T21:29:20;6.72;;;1.75;;
46597;SDS011;32318;48.858;8.252;2024-02-23T21:37:20;5.43;;;1.80;;
46597;SDS011;32318;48.858;8.252;2024-02-23T21:45:20;9.00;;;2.05;;
46597;SDS011;32318;48.858;8.252;2024-02-23T21:53:21;4.35;;;1.35;;
46597;SDS011;32318;48.858;8.252;2024-02-23T22:01:21;6.10;;;1.52;;
46597;SDS011;32318;48.858;8.252;2024-02-23T22:09:24;6.00;;;1.98;;
46597;SDS011;32318;48.858;8.252;2024-02-23T22:17:25;10.67;;;2.47;;
46597;SDS011;32318;48.858;8.252;2024-02-23T22:25:26;6.55;;;1.83;;
46597;SDS011;32318;48.858;8.252;2024-02-23T22:33:27;9.82;;;1.80;;
46597;SDS011;32318;48.858;8.252;2024-02-23T22:41:27;3.58;;;1.45;;
46597;SDS011;32318;48.858;8.252;2024-02-23T22:49:30;5.93;;;1.30;;
46597;SDS011;32318;48.858;8.252;2024-02-23T22:57:30;5.72;;;1.20;;
46597;SDS011;32318;48.858;8.252;2024-02-23T23:05:31;7.07;;;1.70;;
46597;SDS011;32318;48.858;8.252;2024-02-23T23:13:31;4.00;;;1.13;;
46597;SDS011;32318;48.858;8.252;2024-02-23T23:21:31;5.25;;;1.02;;
46597;SDS011;32318;48.858;8.252;2024-02-23T23:29:31;4.18;;;1.15;;
46597;SDS011;32318;48.858;8.252;2024-02-23T23:37:32;4.30;;;1.05;;
46597;SDS011;32318;48.858;8.252;2024-02-23T23:45:32;3.63;;;1.27;;
46597;SDS011;32318;48.858;8.252;2024-02-23T23:53:33;4.97;;;1.10;;
